sensor_id;sensor_type;location;lat;lon;timestamp;P1;durP1;ratioP1;P2;durP2;ratioP2
19679;SDS011;9989;48.962;9.182;2024-01-30T00:01:24;29.30;;;17.10;;
19679;SDS011;9989;48.962;9.182;2024-01-30T00:03:49;28.40;;;17.20;;
19679;SDS011;9989;48.962;9.182;2024-01-30T00:06:18;30.40;;;17.10;;
19679;SDS011;9989;48.962;9.182;2024-01-30T00:08:45;25.37;;;16.40;;
19679;SDS011;9989;48.962;9.182;2024-01-30T00:11:13;23.93;;;15.07;;
19679;SDS011;9989;48.962;9.182;2024-01-30T00:13:39;27.57;;;16.23;;
19679;SDS011;9989;48.962;9.182;2024-01-30T00:16:05;26.43;;;15.43;;
19679;SDS011;9989;48.962;9.182;2024-01-30T00:18:30;25.33;;;15.17;;
19679;SDS011;9989;48.962;9.182;2024-01-30T00:20:56;25.83;;;14.03;;
19679;SDS011;9989;48.962;9.182;2024-01-30T00:23:22;25.27;;;15.60;;
19679;SDS011;9989;48.962;9.182;2024-01-30T00:25:47;27.33;;;14.93;;
19679;SDS011;9989;48.962;9.182;2024-01-30T00:28:13;24.83;;;14.50;;
19679;SDS011;9989;48.962;9.182;2024-01-30T00:30:39;25.73;;;14.53;;
19679;SDS011;9989;48.962;9.182;2024-01-30T00:33:04;23.97;;;14.40;;
19679;SDS011;9989;48.962;9.182;2024-01-30T00:35:30;21.87;;;13.37;;
19679;SDS011;9989;48.962;9.182;2024-01-30T00:37:56;22.43;;;13.23;;
19679;SDS011;9989;48.962;9.182;2024-01-30T00:40:22;23.50;;;13.63;;
19679;SDS011;9989;48.962;9.182;2024-01-30T00:42:48;26.10;;;13.97;;
19679;SDS011;9989;48.962;9.182;2024-01-30T00:45:14;25.07;;;15.67;;
19679;SDS011;9989;48.962;9.182;2024-01-30T00:47:41;25.63;;;14.23;;
19679;SDS011;9989;48.962;9.182;2024-01-30T00:50:07;22.90;;;13.47;;
19679;SDS011;9989;48.962;9.182;2024-01-30T00:52:33;23.90;;;13.17;;
19679;SDS011;9989;48.962;9.182;2024-01-30T00:55:01;26.43;;;14.30;;
19679;SDS011;9989;48.962;9.182;2024-01-30T00:57:27;23.13;;;13.93;;
19679;SDS011;9989;48.962;9.182;2024-01-30T00:59:54;21.70;;;13.53;;
19679;SDS011;9989;48.962;9.182;2024-01-30T01:02:19;22.73;;;13.20;;
19679;SDS011;9989;48.962;9.182;2024-01-30T01:04:45;26.20;;;14.40;;
19679;SDS011;9989;48.962;9.182;2024-01-30T01:07:11;23.80;;;14.43;;
19679;SDS011;9989;48.962;9.182;2024-01-30T01:09:37;21.53;;;13.17;;
19679;SDS011;9989;48.962;9.182;2024-01-30T01:12:03;18.47;;;12.30;;
19679;SDS011;9989;48.962;9.182;2024-01-30T01:14:29;20.77;;;12.70;;
19679;SDS011;9989;48.962;9.182;2024-01-30T01:16:55;19.40;;;11.73;;
19679;SDS011;9989;48.962;9.182;2024-01-30T01:19:21;19.53;;;11.80;;
19679;SDS011;9989;48.962;9.182;2024-01-30T01:21:47;19.83;;;12.17;;
19679;SDS011;9989;48.962;9.182;2024-01-30T01:24:12;20.77;;;11.23;;
19679;SDS011;9989;48.962;9.182;2024-01-30T01:26:38;19.43;;;11.57;;
19679;SDS011;9989;48.962;9.182;2024-01-30T01:29:06;18.37;;;10.57;;
19679;SDS011;9989;48.962;9.182;2024-01-30T01:31:36;20.13;;;11.27;;
19679;SDS011;9989;48.962;9.182;2024-01-30T01:34:11;17.53;;;11.27;;
19679;SDS011;9989;48.962;9.182;2024-01-30T01:36:37;18.73;;;10.70;;
19679;SDS011;9989;48.962;9.182;2024-01-30T01:39:04;20.10;;;11.17;;
19679;SDS011;9989;48.962;9.182;2024-01-30T01:41:33;20.17;;;11.07;;
19679;SDS011;9989;48.962;9.182;2024-01-30T01:43:59;17.63;;;10.80;;
19679;SDS011;9989;48.962;9.182;2024-01-30T01:46:27;20.87;;;10.93;;
19679;SDS011;9989;48.962;9.182;2024-01-30T01:48:56;18.00;;;10.30;;
19679;SDS011;9989;48.962;9.182;2024-01-30T01:51:22;20.60;;;11.73;;
19679;SDS011;9989;48.962;9.182;2024-01-30T01:53:52;18.10;;;10.50;;
19679;SDS011;9989;48.962;9.182;2024-01-30T01:56:19;19.10;;;11.63;;
19679;SDS011;9989;48.962;9.182;2024-01-30T01:58:45;23.10;;;12.43;;
19679;SDS011;9989;48.962;9.182;2024-01-30T02:01:13;20.17;;;11.33;;
19679;SDS011;9989;48.962;9.182;2024-01-30T02:03:39;19.53;;;11.20;;
19679;SDS011;9989;48.962;9.182;2024-01-30T02:06:06;19.70;;;11.47;;
19679;SDS011;9989;48.962;9.182;2024-01-30T02:08:32;24.73;;;11.70;;
19679;SDS011;9989;48.962;9.182;2024-01-30T02:10:58;18.53;;;11.60;;
19679;SDS011;9989;48.962;9.182;2024-01-30T02:13:26;19.43;;;11.67;;
19679;SDS011;9989;48.962;9.182;2024-01-30T02:15:51;19.10;;;11.57;;
19679;SDS011;9989;48.962;9.182;2024-01-30T02:18:19;20.03;;;10.87;;
19679;SDS011;9989;48.962;9.182;2024-01-30T02:20:45;23.37;;;12.40;;
19679;SDS011;9989;48.962;9.182;2024-01-30T02:23:12;21.93;;;11.20;;
19679;SDS011;9989;48.962;9.182;2024-01-30T02:25:45;19.67;;;12.27;;
19679;SDS011;9989;48.962;9.182;2024-01-30T02:28:11;16.23;;;9.70;;
19679;SDS011;9989;48.962;9.182;2024-01-30T02:30:44;18.63;;;11.30;;
19679;SDS011;9989;48.962;9.182;2024-01-30T02:33:11;17.97;;;10.57;;
19679;SDS011;9989;48.962;9.182;2024-01-30T02:35:37;21.60;;;12.23;;
19679;SDS011;9989;48.962;9.182;2024-01-30T02:38:03;19.80;;;11.13;;
19679;SDS011;9989;48.962;9.182;2024-01-30T02:40:29;18.53;;;10.30;;
19679;SDS011;9989;48.962;9.182;2024-01-30T02:42:55;20.30;;;11.57;;
19679;SDS011;9989;48.962;9.182;2024-01-30T02:45:21;18.50;;;10.80;;
19679;SDS011;9989;48.962;9.182;2024-01-30T02:47:47;21.13;;;12.17;;
19679;SDS011;9989;48.962;9.182;2024-01-30T02:50:13;21.00;;;11.00;;
19679;SDS011;9989;48.962;9.182;2024-01-30T02:52:40;19.47;;;11.43;;
19679;SDS011;9989;48.962;9.182;2024-01-30T02:55:06;22.63;;;11.73;;
19679;SDS011;9989;48.962;9.182;2024-01-30T02:57:31;18.83;;;11.27;;
19679;SDS011;9989;48.962;9.182;2024-01-30T02:59:57;18.83;;;10.87;;
19679;SDS011;9989;48.962;9.182;2024-01-30T03:02:23;18.13;;;11.10;;
19679;SDS011;9989;48.962;9.182;2024-01-30T03:04:49;19.63;;;11.30;;
19679;SDS011;9989;48.962;9.182;2024-01-30T03:07:14;18.93;;;11.17;;
19679;SDS011;9989;48.962;9.182;2024-01-30T03:09:43;19.40;;;12.03;;
19679;SDS011;9989;48.962;9.182;2024-01-30T03:12:09;17.83;;;10.73;;
19679;SDS011;9989;48.962;9.182;2024-01-30T03:14:35;17.80;;;11.57;;
19679;SDS011;9989;48.962;9.182;2024-01-30T03:17:01;20.10;;;12.00;;
19679;SDS011;9989;48.962;9.182;2024-01-30T03:19:26;20.03;;;11.27;;
19679;SDS011;9989;48.962;9.182;2024-01-30T03:21:52;18.80;;;10.60;;
19679;SDS011;9989;48.962;9.182;2024-01-30T03:24:18;17.90;;;10.60;;
19679;SDS011;9989;48.962;9.182;2024-01-30T03:26:44;19.10;;;11.40;;
19679;SDS011;9989;48.962;9.182;2024-01-30T03:29:10;19.83;;;10.90;;
19679;SDS011;9989;48.962;9.182;2024-01-30T03:31:36;21.47;;;11.43;;
19679;SDS011;9989;48.962;9.182;2024-01-30T03:34:02;19.00;;;10.63;;
19679;SDS011;9989;48.962;9.182;2024-01-30T03:36:28;20.43;;;11.30;;
19679;SDS011;9989;48.962;9.182;2024-01-30T03:38:53;18.63;;;10.43;;
19679;SDS011;9989;48.962;9.182;2024-01-30T03:41:19;21.07;;;11.67;;
19679;SDS011;9989;48.962;9.182;2024-01-30T03:43:47;18.13;;;10.93;;
19679;SDS011;9989;48.962;9.182;2024-01-30T03:46:12;18.93;;;11.20;;
19679;SDS011;9989;48.962;9.182;2024-01-30T03:48:38;17.83;;;11.03;;
19679;SDS011;9989;48.962;9.182;2024-01-30T03:51:04;19.77;;;10.40;;
19679;SDS011;9989;48.962;9.182;2024-01-30T03:53:30;18.47;;;11.00;;
19679;SDS011;9989;48.962;9.182;2024-01-30T03:55:55;18.40;;;11.00;;
19679;SDS011;9989;48.962;9.182;2024-01-30T03:58:21;17.57;;;10.77;;
19679;SDS011;9989;48.962;9.182;2024-01-30T04:00:47;16.80;;;10.60;;
19679;SDS011;9989;48.962;9.182;2024-01-30T04:03:14;19.47;;;10.63;;
19679;SDS011;9989;48.962;9.182;2024-01-30T04:05:41;18.33;;;10.10;;
19679;SDS011;9989;48.962;9.182;2024-01-30T04:08:07;18.17;;;10.40;;
19679;SDS011;9989;48.962;9.182;2024-01-30T04:10:33;19.80;;;11.07;;
19679;SDS011;9989;48.962;9.182;2024-01-30T04:12:59;20.07;;;11.20;;
19679;SDS011;9989;48.962;9.182;2024-01-30T04:15:25;26.13;;;16.67;;
19679;SDS011;9989;48.962;9.182;2024-01-30T04:17:51;26.90;;;17.90;;
19679;SDS011;9989;48.962;9.182;2024-01-30T04:20:17;24.43;;;14.77;;
19679;SDS011;9989;48.962;9.182;2024-01-30T04:22:43;22.23;;;13.13;;
19679;SDS011;9989;48.962;9.182;2024-01-30T04:25:09;23.10;;;14.57;;
19679;SDS011;9989;48.962;9.182;2024-01-30T04:27:36;29.37;;;18.23;;
19679;SDS011;9989;48.962;9.182;2024-01-30T04:30:01;31.47;;;19.17;;
19679;SDS011;9989;48.962;9.182;2024-01-30T04:32:27;26.93;;;15.73;;
19679;SDS011;9989;48.962;9.182;2024-01-30T04:34:52;28.37;;;15.60;;
19679;SDS011;9989;48.962;9.182;2024-01-30T04:37:18;24.83;;;14.63;;
19679;SDS011;9989;48.962;9.182;2024-01-30T04:39:44;26.07;;;15.10;;
19679;SDS011;9989;48.962;9.182;2024-01-30T04:42:09;28.50;;;14.03;;
19679;SDS011;9989;48.962;9.182;2024-01-30T04:44:35;31.23;;;18.37;;
19679;SDS011;9989;48.962;9.182;2024-01-30T04:47:01;25.20;;;14.57;;
19679;SDS011;9989;48.962;9.182;2024-01-30T04:49:27;20.90;;;12.90;;
19679;SDS011;9989;48.962;9.182;2024-01-30T04:51:54;22.67;;;11.97;;
19679;SDS011;9989;48.962;9.182;2024-01-30T04:54:20;18.57;;;10.57;;
19679;SDS011;9989;48.962;9.182;2024-01-30T04:56:46;18.70;;;11.37;;
19679;SDS011;9989;48.962;9.182;2024-01-30T04:59:13;20.40;;;11.83;;
19679;SDS011;9989;48.962;9.182;2024-01-30T05:01:38;24.10;;;13.03;;
19679;SDS011;9989;48.962;9.182;2024-01-30T05:04:06;24.23;;;13.07;;
19679;SDS011;9989;48.962;9.182;2024-01-30T05:06:33;21.50;;;12.20;;
19679;SDS011;9989;48.962;9.182;2024-01-30T05:08:58;21.93;;;12.13;;
19679;SDS011;9989;48.962;9.182;2024-01-30T05:11:24;20.67;;;11.53;;
19679;SDS011;9989;48.962;9.182;2024-01-30T05:13:50;21.77;;;11.83;;
19679;SDS011;9989;48.962;9.182;2024-01-30T05:16:15;20.70;;;11.23;;
19679;SDS011;9989;48.962;9.182;2024-01-30T05:18:44;20.47;;;11.63;;
19679;SDS011;9989;48.962;9.182;2024-01-30T05:21:10;20.80;;;10.73;;
19679;SDS011;9989;48.962;9.182;2024-01-30T05:23:36;21.13;;;11.70;;
19679;SDS011;9989;48.962;9.182;2024-01-30T05:26:01;17.47;;;10.67;;
19679;SDS011;9989;48.962;9.182;2024-01-30T05:28:28;19.83;;;11.47;;
19679;SDS011;9989;48.962;9.182;2024-01-30T05:30:55;18.93;;;11.20;;
19679;SDS011;9989;48.962;9.182;2024-01-30T05:33:21;18.27;;;10.97;;
19679;SDS011;9989;48.962;9.182;2024-01-30T05:35:47;16.40;;;10.07;;
19679;SDS011;9989;48.962;9.182;2024-01-30T05:38:13;20.17;;;11.10;;
19679;SDS011;9989;48.962;9.182;2024-01-30T05:40:40;19.37;;;10.83;;
19679;SDS011;9989;48.962;9.182;2024-01-30T05:43:06;21.63;;;12.33;;
19679;SDS011;9989;48.962;9.182;2024-01-30T05:45:33;17.47;;;10.37;;
19679;SDS011;9989;48.962;9.182;2024-01-30T05:48:00;19.17;;;11.00;;
19679;SDS011;9989;48.962;9.182;2024-01-30T05:50:26;17.97;;;10.73;;
19679;SDS011;9989;48.962;9.182;2024-01-30T05:52:52;18.83;;;10.80;;
19679;SDS011;9989;48.962;9.182;2024-01-30T05:55:18;20.47;;;11.23;;
19679;SDS011;9989;48.962;9.182;2024-01-30T05:57:43;22.27;;;12.10;;
19679;SDS011;9989;48.962;9.182;2024-01-30T06:00:09;23.00;;;11.60;;
19679;SDS011;9989;48.962;9.182;2024-01-30T06:02:35;15.67;;;10.47;;
19679;SDS011;9989;48.962;9.182;2024-01-30T06:05:01;20.63;;;12.60;;
19679;SDS011;9989;48.962;9.182;2024-01-30T06:07:27;19.13;;;11.57;;
19679;SDS011;9989;48.962;9.182;2024-01-30T06:09:53;17.60;;;10.97;;
19679;SDS011;9989;48.962;9.182;2024-01-30T06:12:18;18.87;;;11.37;;
19679;SDS011;9989;48.962;9.182;2024-01-30T06:14:44;20.47;;;11.20;;
19679;SDS011;9989;48.962;9.182;2024-01-30T06:17:09;21.20;;;11.43;;
19679;SDS011;9989;48.962;9.182;2024-01-30T06:19:36;19.00;;;11.37;;
19679;SDS011;9989;48.962;9.182;2024-01-30T06:22:05;19.10;;;11.27;;
19679;SDS011;9989;48.962;9.182;2024-01-30T06:24:31;22.23;;;11.40;;
19679;SDS011;9989;48.962;9.182;2024-01-30T06:26:56;17.90;;;11.23;;
19679;SDS011;9989;48.962;9.182;2024-01-30T06:29:22;19.27;;;11.53;;
19679;SDS011;9989;48.962;9.182;2024-01-30T06:31:49;18.27;;;11.20;;
19679;SDS011;9989;48.962;9.182;2024-01-30T06:34:15;17.60;;;11.00;;
19679;SDS011;9989;48.962;9.182;2024-01-30T06:36:41;18.13;;;10.70;;
19679;SDS011;9989;48.962;9.182;2024-01-30T06:39:07;18.90;;;11.00;;
19679;SDS011;9989;48.962;9.182;2024-01-30T06:41:33;18.97;;;11.30;;
19679;SDS011;9989;48.962;9.182;2024-01-30T06:43:58;20.50;;;11.00;;
19679;SDS011;9989;48.962;9.182;2024-01-30T06:46:24;20.83;;;11.30;;
19679;SDS011;9989;48.962;9.182;2024-01-30T06:48:50;21.50;;;10.53;;
19679;SDS011;9989;48.962;9.182;2024-01-30T06:51:15;17.23;;;10.63;;
19679;SDS011;9989;48.962;9.182;2024-01-30T06:53:41;17.17;;;10.20;;
19679;SDS011;9989;48.962;9.182;2024-01-30T06:56:07;17.00;;;9.53;;
19679;SDS011;9989;48.962;9.182;2024-01-30T06:58:33;19.10;;;10.67;;
19679;SDS011;9989;48.962;9.182;2024-01-30T07:00:58;18.23;;;11.33;;
19679;SDS011;9989;48.962;9.182;2024-01-30T07:03:24;21.80;;;10.77;;
19679;SDS011;9989;48.962;9.182;2024-01-30T07:05:50;20.00;;;10.83;;
19679;SDS011;9989;48.962;9.182;2024-01-30T07:08:16;18.40;;;11.00;;
19679;SDS011;9989;48.962;9.182;2024-01-30T07:10:44;19.97;;;11.93;;
19679;SDS011;9989;48.962;9.182;2024-01-30T07:13:10;20.93;;;12.17;;
19679;SDS011;9989;48.962;9.182;2024-01-30T07:15:36;19.87;;;11.37;;
19679;SDS011;9989;48.962;9.182;2024-01-30T07:18:02;21.00;;;12.53;;
19679;SDS011;9989;48.962;9.182;2024-01-30T07:20:29;20.90;;;12.00;;
19679;SDS011;9989;48.962;9.182;2024-01-30T07:22:57;24.50;;;13.30;;
19679;SDS011;9989;48.962;9.182;2024-01-30T07:25:23;22.73;;;13.43;;
19679;SDS011;9989;48.962;9.182;2024-01-30T07:27:51;27.83;;;14.87;;
19679;SDS011;9989;48.962;9.182;2024-01-30T07:30:17;23.40;;;14.47;;
19679;SDS011;9989;48.962;9.182;2024-01-30T07:32:44;24.17;;;13.57;;
19679;SDS011;9989;48.962;9.182;2024-01-30T07:35:09;25.53;;;13.57;;
19679;SDS011;9989;48.962;9.182;2024-01-30T07:37:36;21.07;;;12.27;;
19679;SDS011;9989;48.962;9.182;2024-01-30T07:40:02;22.10;;;13.70;;
19679;SDS011;9989;48.962;9.182;2024-01-30T07:42:28;20.73;;;12.67;;
19679;SDS011;9989;48.962;9.182;2024-01-30T07:44:54;20.27;;;11.70;;
19679;SDS011;9989;48.962;9.182;2024-01-30T07:47:19;23.40;;;12.37;;
19679;SDS011;9989;48.962;9.182;2024-01-30T07:49:46;21.37;;;11.73;;
19679;SDS011;9989;48.962;9.182;2024-01-30T07:52:12;23.10;;;12.33;;
19679;SDS011;9989;48.962;9.182;2024-01-30T07:54:38;23.43;;;12.83;;
19679;SDS011;9989;48.962;9.182;2024-01-30T07:57:04;19.40;;;12.00;;
19679;SDS011;9989;48.962;9.182;2024-01-30T07:59:30;20.20;;;12.00;;
19679;SDS011;9989;48.962;9.182;2024-01-30T08:01:56;20.03;;;12.07;;
19679;SDS011;9989;48.962;9.182;2024-01-30T08:04:22;23.37;;;13.37;;
19679;SDS011;9989;48.962;9.182;2024-01-30T08:06:48;28.27;;;15.40;;
19679;SDS011;9989;48.962;9.182;2024-01-30T08:09:14;36.37;;;22.27;;
19679;SDS011;9989;48.962;9.182;2024-01-30T08:11:40;32.60;;;19.50;;
19679;SDS011;9989;48.962;9.182;2024-01-30T08:14:05;30.33;;;18.93;;
19679;SDS011;9989;48.962;9.182;2024-01-30T08:16:31;22.77;;;13.47;;
19679;SDS011;9989;48.962;9.182;2024-01-30T08:18:57;20.37;;;11.73;;
19679;SDS011;9989;48.962;9.182;2024-01-30T08:21:23;20.90;;;11.47;;
19679;SDS011;9989;48.962;9.182;2024-01-30T08:23:49;17.97;;;11.53;;
19679;SDS011;9989;48.962;9.182;2024-01-30T08:26:14;17.93;;;10.73;;
19679;SDS011;9989;48.962;9.182;2024-01-30T08:28:40;16.77;;;10.47;;
19679;SDS011;9989;48.962;9.182;2024-01-30T08:31:06;21.07;;;13.17;;
19679;SDS011;9989;48.962;9.182;2024-01-30T08:33:31;19.00;;;10.77;;
19679;SDS011;9989;48.962;9.182;2024-01-30T08:35:57;16.83;;;10.40;;
19679;SDS011;9989;48.962;9.182;2024-01-30T08:38:23;17.10;;;10.47;;
19679;SDS011;9989;48.962;9.182;2024-01-30T08:40:49;16.53;;;10.17;;
19679;SDS011;9989;48.962;9.182;2024-01-30T08:43:14;16.50;;;9.60;;
19679;SDS011;9989;48.962;9.182;2024-01-30T08:45:40;15.80;;;9.73;;
19679;SDS011;9989;48.962;9.182;2024-01-30T08:48:07;15.67;;;9.77;;
19679;SDS011;9989;48.962;9.182;2024-01-30T08:50:33;14.83;;;9.37;;
19679;SDS011;9989;48.962;9.182;2024-01-30T08:52:59;16.77;;;10.17;;
19679;SDS011;9989;48.962;9.182;2024-01-30T08:55:25;18.90;;;10.77;;
19679;SDS011;9989;48.962;9.182;2024-01-30T08:57:51;30.40;;;16.03;;
19679;SDS011;9989;48.962;9.182;2024-01-30T09:00:17;33.27;;;18.47;;
19679;SDS011;9989;48.962;9.182;2024-01-30T09:02:43;33.60;;;16.97;;
19679;SDS011;9989;48.962;9.182;2024-01-30T09:05:08;24.33;;;13.87;;
19679;SDS011;9989;48.962;9.182;2024-01-30T09:07:34;22.23;;;13.00;;
19679;SDS011;9989;48.962;9.182;2024-01-30T09:10:00;22.20;;;10.40;;
19679;SDS011;9989;48.962;9.182;2024-01-30T09:12:25;17.67;;;10.53;;
19679;SDS011;9989;48.962;9.182;2024-01-30T09:14:51;17.43;;;10.73;;
19679;SDS011;9989;48.962;9.182;2024-01-30T09:17:17;19.77;;;10.83;;
19679;SDS011;9989;48.962;9.182;2024-01-30T09:19:42;16.87;;;9.83;;
19679;SDS011;9989;48.962;9.182;2024-01-30T09:22:08;17.00;;;9.60;;
19679;SDS011;9989;48.962;9.182;2024-01-30T09:24:33;17.70;;;10.03;;
19679;SDS011;9989;48.962;9.182;2024-01-30T09:27:00;15.63;;;9.90;;
19679;SDS011;9989;48.962;9.182;2024-01-30T09:29:25;15.90;;;9.93;;
19679;SDS011;9989;48.962;9.182;2024-01-30T09:31:51;16.70;;;10.47;;
19679;SDS011;9989;48.962;9.182;2024-01-30T09:34:17;15.33;;;9.50;;
19679;SDS011;9989;48.962;9.182;2024-01-30T09:36:43;15.10;;;10.37;;
19679;SDS011;9989;48.962;9.182;2024-01-30T09:39:09;15.67;;;9.67;;
19679;SDS011;9989;48.962;9.182;2024-01-30T09:41:37;16.37;;;10.40;;
19679;SDS011;9989;48.962;9.182;2024-01-30T09:44:11;18.43;;;10.07;;
19679;SDS011;9989;48.962;9.182;2024-01-30T09:46:37;17.37;;;10.40;;
19679;SDS011;9989;48.962;9.182;2024-01-30T09:49:04;16.50;;;10.40;;
19679;SDS011;9989;48.962;9.182;2024-01-30T09:51:31;19.03;;;11.33;;
19679;SDS011;9989;48.962;9.182;2024-01-30T09:53:58;16.20;;;10.50;;
19679;SDS011;9989;48.962;9.182;2024-01-30T09:56:23;16.13;;;10.47;;
19679;SDS011;9989;48.962;9.182;2024-01-30T09:58:49;15.70;;;10.00;;
19679;SDS011;9989;48.962;9.182;2024-01-30T10:01:15;18.23;;;9.80;;
19679;SDS011;9989;48.962;9.182;2024-01-30T10:03:44;15.60;;;10.10;;
19679;SDS011;9989;48.962;9.182;2024-01-30T10:06:10;15.83;;;9.83;;
19679;SDS011;9989;48.962;9.182;2024-01-30T10:08:36;20.87;;;10.57;;
19679;SDS011;9989;48.962;9.182;2024-01-30T10:11:02;15.57;;;10.10;;
19679;SDS011;9989;48.962;9.182;2024-01-30T10:13:28;16.97;;;10.70;;
19679;SDS011;9989;48.962;9.182;2024-01-30T10:15:54;14.90;;;10.23;;
19679;SDS011;9989;48.962;9.182;2024-01-30T10:18:22;17.17;;;10.70;;
19679;SDS011;9989;48.962;9.182;2024-01-30T10:20:47;14.80;;;9.93;;
19679;SDS011;9989;48.962;9.182;2024-01-30T10:23:13;17.63;;;11.20;;
19679;SDS011;9989;48.962;9.182;2024-01-30T10:25:39;15.60;;;10.23;;
19679;SDS011;9989;48.962;9.182;2024-01-30T10:28:05;17.07;;;11.27;;
19679;SDS011;9989;48.962;9.182;2024-01-30T10:30:31;16.07;;;10.00;;
19679;SDS011;9989;48.962;9.182;2024-01-30T10:32:57;18.57;;;10.73;;
19679;SDS011;9989;48.962;9.182;2024-01-30T10:35:22;17.00;;;9.90;;
19679;SDS011;9989;48.962;9.182;2024-01-30T10:37:48;16.87;;;11.10;;
19679;SDS011;9989;48.962;9.182;2024-01-30T10:40:14;17.00;;;10.90;;
19679;SDS011;9989;48.962;9.182;2024-01-30T10:42:45;17.60;;;11.30;;
19679;SDS011;9989;48.962;9.182;2024-01-30T10:45:14;18.57;;;11.20;;
19679;SDS011;9989;48.962;9.182;2024-01-30T10:47:44;17.00;;;11.20;;
19679;SDS011;9989;48.962;9.182;2024-01-30T10:50:14;15.57;;;10.30;;
19679;SDS011;9989;48.962;9.182;2024-01-30T10:52:41;19.53;;;10.70;;
19679;SDS011;9989;48.962;9.182;2024-01-30T10:55:07;18.83;;;11.40;;
19679;SDS011;9989;48.962;9.182;2024-01-30T10:57:34;16.87;;;10.93;;
19679;SDS011;9989;48.962;9.182;2024-01-30T11:00:09;18.40;;;10.53;;
19679;SDS011;9989;48.962;9.182;2024-01-30T11:02:41;16.70;;;10.00;;
19679;SDS011;9989;48.962;9.182;2024-01-30T11:05:08;15.83;;;10.33;;
19679;SDS011;9989;48.962;9.182;2024-01-30T11:07:34;15.37;;;10.47;;
19679;SDS011;9989;48.962;9.182;2024-01-30T11:10:03;16.07;;;10.60;;
19679;SDS011;9989;48.962;9.182;2024-01-30T11:12:30;16.90;;;11.20;;
19679;SDS011;9989;48.962;9.182;2024-01-30T11:15:03;24.03;;;11.83;;
19679;SDS011;9989;48.962;9.182;2024-01-30T11:17:41;18.20;;;11.70;;
19679;SDS011;9989;48.962;9.182;2024-01-30T11:20:11;14.70;;;10.07;;
19679;SDS011;9989;48.962;9.182;2024-01-30T11:22:40;16.30;;;10.57;;
19679;SDS011;9989;48.962;9.182;2024-01-30T11:25:10;17.20;;;11.27;;
19679;SDS011;9989;48.962;9.182;2024-01-30T11:27:37;16.97;;;10.93;;
19679;SDS011;9989;48.962;9.182;2024-01-30T11:30:03;20.47;;;10.93;;
19679;SDS011;9989;48.962;9.182;2024-01-30T11:32:30;16.07;;;10.13;;
19679;SDS011;9989;48.962;9.182;2024-01-30T11:34:55;14.33;;;9.13;;
19679;SDS011;9989;48.962;9.182;2024-01-30T11:37:21;15.37;;;9.57;;
19679;SDS011;9989;48.962;9.182;2024-01-30T11:39:51;17.27;;;9.70;;
19679;SDS011;9989;48.962;9.182;2024-01-30T11:42:18;13.70;;;9.70;;
19679;SDS011;9989;48.962;9.182;2024-01-30T11:44:48;17.10;;;10.07;;
19679;SDS011;9989;48.962;9.182;2024-01-30T11:47:14;14.70;;;8.87;;
19679;SDS011;9989;48.962;9.182;2024-01-30T11:49:40;15.47;;;10.03;;
19679;SDS011;9989;48.962;9.182;2024-01-30T11:52:05;15.50;;;10.77;;
19679;SDS011;9989;48.962;9.182;2024-01-30T11:54:31;17.93;;;10.13;;
19679;SDS011;9989;48.962;9.182;2024-01-30T11:56:57;15.30;;;8.83;;
19679;SDS011;9989;48.962;9.182;2024-01-30T11:59:23;20.37;;;12.63;;
19679;SDS011;9989;48.962;9.182;2024-01-30T12:01:51;20.33;;;12.90;;
19679;SDS011;9989;48.962;9.182;2024-01-30T12:04:17;19.60;;;12.10;;
19679;SDS011;9989;48.962;9.182;2024-01-30T12:06:43;18.93;;;12.63;;
19679;SDS011;9989;48.962;9.182;2024-01-30T12:09:09;16.97;;;10.40;;
19679;SDS011;9989;48.962;9.182;2024-01-30T12:11:44;16.57;;;9.63;;
19679;SDS011;9989;48.962;9.182;2024-01-30T12:14:10;16.87;;;9.77;;
19679;SDS011;9989;48.962;9.182;2024-01-30T12:16:37;17.53;;;11.20;;
19679;SDS011;9989;48.962;9.182;2024-01-30T12:19:02;16.43;;;10.30;;
19679;SDS011;9989;48.962;9.182;2024-01-30T12:21:28;17.87;;;11.07;;
19679;SDS011;9989;48.962;9.182;2024-01-30T12:23:54;15.57;;;10.00;;
19679;SDS011;9989;48.962;9.182;2024-01-30T12:26:21;15.70;;;10.30;;
19679;SDS011;9989;48.962;9.182;2024-01-30T12:28:47;18.40;;;11.40;;
19679;SDS011;9989;48.962;9.182;2024-01-30T12:31:16;17.23;;;11.03;;
19679;SDS011;9989;48.962;9.182;2024-01-30T12:33:41;16.47;;;10.80;;
19679;SDS011;9989;48.962;9.182;2024-01-30T12:36:07;16.17;;;11.27;;
19679;SDS011;9989;48.962;9.182;2024-01-30T12:38:33;18.13;;;11.27;;
19679;SDS011;9989;48.962;9.182;2024-01-30T12:40:58;17.30;;;11.50;;
19679;SDS011;9989;48.962;9.182;2024-01-30T12:43:24;17.87;;;10.33;;
19679;SDS011;9989;48.962;9.182;2024-01-30T12:45:50;17.53;;;11.20;;
19679;SDS011;9989;48.962;9.182;2024-01-30T12:48:17;16.87;;;10.13;;
19679;SDS011;9989;48.962;9.182;2024-01-30T12:50:43;16.47;;;10.63;;
19679;SDS011;9989;48.962;9.182;2024-01-30T12:53:08;23.43;;;11.57;;
19679;SDS011;9989;48.962;9.182;2024-01-30T12:55:34;19.30;;;11.53;;
19679;SDS011;9989;48.962;9.182;2024-01-30T12:58:00;16.37;;;10.77;;
19679;SDS011;9989;48.962;9.182;2024-01-30T13:00:26;17.07;;;11.20;;
19679;SDS011;9989;48.962;9.182;2024-01-30T13:02:52;17.93;;;10.90;;
19679;SDS011;9989;48.962;9.182;2024-01-30T13:05:18;20.17;;;11.50;;
19679;SDS011;9989;48.962;9.182;2024-01-30T13:07:43;18.00;;;11.53;;
19679;SDS011;9989;48.962;9.182;2024-01-30T13:10:09;23.37;;;13.53;;
19679;SDS011;9989;48.962;9.182;2024-01-30T13:12:35;20.33;;;12.53;;
19679;SDS011;9989;48.962;9.182;2024-01-30T13:15:02;18.13;;;13.20;;
19679;SDS011;9989;48.962;9.182;2024-01-30T13:17:29;18.57;;;12.27;;
19679;SDS011;9989;48.962;9.182;2024-01-30T13:19:55;17.70;;;11.37;;
19679;SDS011;9989;48.962;9.182;2024-01-30T13:22:21;16.70;;;10.43;;
19679;SDS011;9989;48.962;9.182;2024-01-30T13:24:47;16.37;;;9.67;;
19679;SDS011;9989;48.962;9.182;2024-01-30T13:27:13;16.83;;;9.37;;
19679;SDS011;9989;48.962;9.182;2024-01-30T13:29:38;15.70;;;10.17;;
19679;SDS011;9989;48.962;9.182;2024-01-30T13:32:04;14.40;;;9.13;;
19679;SDS011;9989;48.962;9.182;2024-01-30T13:34:30;15.97;;;9.37;;
19679;SDS011;9989;48.962;9.182;2024-01-30T13:36:56;14.07;;;9.20;;
19679;SDS011;9989;48.962;9.182;2024-01-30T13:39:22;19.07;;;10.27;;
19679;SDS011;9989;48.962;9.182;2024-01-30T13:41:48;14.90;;;9.57;;
19679;SDS011;9989;48.962;9.182;2024-01-30T13:44:13;15.47;;;9.87;;
19679;SDS011;9989;48.962;9.182;2024-01-30T13:46:41;17.30;;;10.40;;
19679;SDS011;9989;48.962;9.182;2024-01-30T13:49:07;16.10;;;10.20;;
19679;SDS011;9989;48.962;9.182;2024-01-30T13:51:33;16.80;;;10.13;;
19679;SDS011;9989;48.962;9.182;2024-01-30T13:53:58;14.67;;;9.37;;
19679;SDS011;9989;48.962;9.182;2024-01-30T13:56:24;16.37;;;10.80;;
19679;SDS011;9989;48.962;9.182;2024-01-30T13:58:51;17.33;;;10.43;;
19679;SDS011;9989;48.962;9.182;2024-01-30T14:01:17;15.47;;;9.33;;
19679;SDS011;9989;48.962;9.182;2024-01-30T14:03:44;16.27;;;9.90;;
19679;SDS011;9989;48.962;9.182;2024-01-30T14:06:09;14.23;;;8.90;;
19679;SDS011;9989;48.962;9.182;2024-01-30T14:08:36;14.80;;;8.90;;
19679;SDS011;9989;48.962;9.182;2024-01-30T14:11:02;13.20;;;8.73;;
19679;SDS011;9989;48.962;9.182;2024-01-30T14:13:28;13.80;;;9.40;;
19679;SDS011;9989;48.962;9.182;2024-01-30T14:15:55;15.20;;;8.90;;
19679;SDS011;9989;48.962;9.182;2024-01-30T14:18:21;18.77;;;11.33;;
19679;SDS011;9989;48.962;9.182;2024-01-30T14:20:47;20.03;;;11.33;;
19679;SDS011;9989;48.962;9.182;2024-01-30T14:23:13;17.10;;;11.03;;
19679;SDS011;9989;48.962;9.182;2024-01-30T14:25:39;20.00;;;11.60;;
19679;SDS011;9989;48.962;9.182;2024-01-30T14:28:06;17.50;;;10.77;;
19679;SDS011;9989;48.962;9.182;2024-01-30T14:30:33;17.53;;;10.23;;